createdAt,value
2019-01-08T00:00:03.855Z,99.90
2019-01-08T00:02:32.301Z,99.90
2019-01-08T00:05:00.520Z,99.90
2019-01-08T00:07:28.989Z,99.90
2019-01-08T00:09:57.209Z,99.90
2019-01-08T00:12:25.446Z,99.90
2019-01-08T00:14:53.749Z,99.90
2019-01-08T00:17:22.006Z,99.90
2019-01-08T00:19:50.227Z,99.90
2019-01-08T00:22:18.451Z,99.90
2019-01-08T00:24:46.745Z,99.90
2019-01-08T00:27:14.997Z,99.90
2019-01-08T00:29:43.501Z,99.90
2019-01-08T00:32:11.804Z,99.90
2019-01-08T00:34:40.030Z,99.90
2019-01-08T00:37:08.278Z,99.90
2019-01-08T00:39:36.529Z,99.90
2019-01-08T00:42:04.776Z,99.90
2019-01-08T00:44:33.337Z,99.90
2019-01-08T00:47:01.566Z,99.90
2019-01-08T00:49:29.777Z,99.90
2019-01-08T00:51:58.275Z,99.90
2019-01-08T00:54:26.493Z,99.90
2019-01-08T00:56:54.717Z,99.90
2019-01-08T00:59:22.970Z,99.90
2019-01-08T01:01:51.191Z,99.90
2019-01-08T01:04:19.451Z,99.90
2019-01-08T01:06:47.668Z,99.90
2019-01-08T01:09:17.593Z,99.90
2019-01-08T01:11:45.821Z,99.90
2019-01-08T01:14:14.373Z,99.90
2019-01-08T01:16:42.594Z,99.90
2019-01-08T01:19:10.813Z,99.90
2019-01-08T01:21:39.066Z,99.90
2019-01-08T01:24:07.281Z,99.90
2019-01-08T01:26:35.533Z,99.90
2019-01-08T01:29:04.033Z,99.90
2019-01-08T01:31:32.262Z,99.90
2019-01-08T01:34:00.483Z,99.90
2019-01-08T01:36:28.745Z,99.90
2019-01-08T01:38:56.970Z,99.90
2019-01-08T01:41:25.210Z,99.90
2019-01-08T01:43:53.483Z,99.90
2019-01-08T01:46:21.714Z,99.90
2019-01-08T01:48:49.942Z,99.90
2019-01-08T01:51:18.185Z,99.90
2019-01-08T01:53:46.404Z,99.90
2019-01-08T01:56:14.654Z,99.90
2019-01-08T01:58:42.889Z,99.90
2019-01-08T02:01:11.521Z,99.90
2019-01-08T02:03:39.740Z,99.90
2019-01-08T02:06:07.988Z,99.90
2019-01-08T02:08:36.489Z,99.90
2019-01-08T02:11:04.726Z,99.90
2019-01-08T02:13:32.945Z,99.90
2019-01-08T02:16:01.264Z,99.90
2019-01-08T02:18:29.513Z,99.90
2019-01-08T02:20:57.765Z,99.90
2019-01-08T02:23:26.009Z,99.90
2019-01-08T02:25:54.256Z,99.90
2019-01-08T02:28:22.506Z,99.90
2019-01-08T02:30:50.729Z,99.90
2019-01-08T02:33:18.999Z,99.90
2019-01-08T02:35:47.218Z,99.90
2019-01-08T02:38:15.466Z,99.90
2019-01-08T02:40:45.417Z,99.90
2019-01-08T02:43:13.661Z,99.90
2019-01-08T02:45:41.909Z,99.90
2019-01-08T02:48:10.133Z,99.90
2019-01-08T02:50:38.358Z,99.90
2019-01-08T02:53:06.849Z,99.90
2019-01-08T02:55:35.069Z,99.90
2019-01-08T02:58:06.114Z,99.90
2019-01-08T03:00:34.170Z,99.90
2019-01-08T03:03:02.230Z,99.90
2019-01-08T03:05:30.295Z,99.90
2019-01-08T03:07:58.381Z,99.90
2019-01-08T03:10:26.438Z,99.90
2019-01-08T03:12:54.483Z,99.90
2019-01-08T03:15:22.513Z,99.90
2019-01-08T03:17:50.641Z,99.90
2019-01-08T03:20:18.770Z,99.90
2019-01-08T03:22:46.802Z,99.90
2019-01-08T03:25:14.853Z,99.90
2019-01-08T03:27:42.913Z,99.90
2019-01-08T03:30:10.957Z,99.90
2019-01-08T03:32:39.023Z,99.90
2019-01-08T03:35:07.077Z,99.90
2019-01-08T03:37:35.112Z,99.90
2019-01-08T03:40:03.175Z,99.90
2019-01-08T03:42:31.210Z,99.90
2019-01-08T03:44:59.270Z,99.90
2019-01-08T03:47:27.306Z,99.90
2019-01-08T03:49:55.352Z,99.90
2019-01-08T03:52:23.722Z,99.90
2019-01-08T03:54:51.765Z,99.90
2019-01-08T03:57:19.797Z,99.90
2019-01-08T03:59:47.847Z,99.90
2019-01-08T04:02:15.902Z,99.90
2019-01-08T04:04:43.938Z,99.90
2019-01-08T04:07:12.002Z,99.90
2019-01-08T04:09:40.041Z,99.90
2019-01-08T04:12:09.730Z,99.90
2019-01-08T04:14:37.793Z,99.90
2019-01-08T04:17:05.860Z,99.90
2019-01-08T04:19:34.197Z,99.90
2019-01-08T04:22:02.291Z,99.90
2019-01-08T04:24:30.318Z,99.90
2019-01-08T04:26:58.374Z,99.90
2019-01-08T04:29:26.415Z,99.90
2019-01-08T04:31:54.713Z,99.90
2019-01-08T04:34:22.765Z,99.90
2019-01-08T04:36:50.806Z,99.90
2019-01-08T04:39:19.439Z,99.90
2019-01-08T04:41:47.553Z,99.90
2019-01-08T04:44:15.667Z,99.90
2019-01-08T04:46:43.792Z,99.90
2019-01-08T04:49:11.894Z,99.90
2019-01-08T04:51:39.954Z,99.90
2019-01-08T04:54:08.003Z,99.90
2019-01-08T04:56:36.053Z,99.90
2019-01-08T04:59:04.099Z,99.90
2019-01-08T05:01:32.202Z,99.90
2019-01-08T05:04:00.307Z,99.90
2019-01-08T05:06:28.365Z,99.90
2019-01-08T05:08:56.410Z,99.90
2019-01-08T05:11:24.456Z,99.90
2019-01-08T05:13:52.580Z,99.90
2019-01-08T05:16:20.950Z,99.90
2019-01-08T05:18:48.990Z,99.90
2019-01-08T05:21:17.042Z,99.90
2019-01-08T05:23:45.104Z,99.90
2019-01-08T05:26:13.146Z,99.90
2019-01-08T05:28:41.193Z,99.90
2019-01-08T05:31:09.231Z,99.90
2019-01-08T05:33:37.349Z,99.90
2019-01-08T05:36:05.471Z,99.90
2019-01-08T05:38:33.505Z,99.90
2019-01-08T05:41:01.565Z,99.90
2019-01-08T05:43:29.598Z,99.90
2019-01-08T05:45:57.633Z,99.90
2019-01-08T05:48:25.718Z,99.90
2019-01-08T05:50:53.862Z,99.90
2019-01-08T05:53:21.922Z,99.90
2019-01-08T05:55:49.954Z,99.90
2019-01-08T05:58:17.993Z,99.90
2019-01-08T06:00:46.174Z,99.90
2019-01-08T06:03:14.229Z,99.90
2019-01-08T06:05:42.386Z,99.90
2019-01-08T06:08:10.403Z,99.90
2019-01-08T06:10:38.814Z,99.90
2019-01-08T06:13:06.874Z,99.90
2019-01-08T06:15:34.905Z,99.90
2019-01-08T06:18:02.982Z,99.90
2019-01-08T06:20:31.039Z,99.90
2019-01-08T06:22:59.373Z,99.90
2019-01-08T06:25:27.419Z,99.90
2019-01-08T06:27:55.790Z,99.90
2019-01-08T06:30:24.865Z,99.90
2019-01-08T06:32:53.179Z,99.90
2019-01-08T06:35:21.219Z,99.90
2019-01-08T06:37:49.289Z,99.90
2019-01-08T06:40:17.409Z,99.90
2019-01-08T06:42:47.014Z,99.90
2019-01-08T06:45:15.141Z,99.90
2019-01-08T06:47:43.285Z,99.90
2019-01-08T06:50:11.342Z,99.90
2019-01-08T06:52:39.402Z,99.90
2019-01-08T06:55:07.891Z,99.90
2019-01-08T06:57:37.075Z,99.90
2019-01-08T07:00:05.762Z,99.90
2019-01-08T07:02:33.828Z,99.90
2019-01-08T07:05:01.878Z,99.90
2019-01-08T07:07:29.914Z,99.90
2019-01-08T07:09:57.969Z,99.90
2019-01-08T07:12:26.014Z,99.90
2019-01-08T07:14:54.121Z,99.90
2019-01-08T07:17:22.185Z,99.90
2019-01-08T07:19:50.240Z,99.90
2019-01-08T07:22:18.325Z,99.90
2019-01-08T07:24:46.355Z,99.90
2019-01-08T07:27:16.635Z,99.90
2019-01-08T07:29:44.174Z,99.90
2019-01-08T07:32:12.313Z,99.90
2019-01-08T07:34:40.750Z,99.90
2019-01-08T07:37:08.827Z,99.90
2019-01-08T07:39:36.994Z,99.90
2019-01-08T07:42:05.145Z,99.90
2019-01-08T07:44:33.495Z,99.90
2019-01-08T07:47:01.525Z,99.90
2019-01-08T07:49:29.562Z,99.90
2019-01-08T07:51:57.614Z,99.90
2019-01-08T07:54:25.671Z,99.90
2019-01-08T07:56:53.718Z,99.90
2019-01-08T07:59:21.775Z,99.90
2019-01-08T08:01:49.908Z,99.90
2019-01-08T08:04:17.961Z,99.90
2019-01-08T08:06:46.051Z,99.90
2019-01-08T08:09:14.100Z,99.90
2019-01-08T08:11:42.482Z,99.90
2019-01-08T08:14:10.525Z,99.90
2019-01-08T08:16:38.575Z,99.90
2019-01-08T08:19:08.073Z,99.90
2019-01-08T08:21:36.325Z,99.90
2019-01-08T08:24:04.357Z,99.90
2019-01-08T08:26:32.413Z,99.90
2019-01-08T08:29:00.466Z,99.90
2019-01-08T08:31:30.555Z,99.90
2019-01-08T08:33:58.648Z,99.90
2019-01-08T08:36:26.858Z,99.90
2019-01-08T08:38:54.962Z,99.90
2019-01-08T08:41:23.055Z,99.90
2019-01-08T08:43:51.113Z,99.90
2019-01-08T08:46:19.199Z,99.90
2019-01-08T08:48:47.269Z,99.90
2019-01-08T08:51:15.302Z,99.90
2019-01-08T08:53:52.038Z,99.90
2019-01-08T08:56:13.362Z,99.90
2019-01-08T08:58:41.434Z,99.90
2019-01-08T09:01:09.501Z,99.90
2019-01-08T09:03:37.546Z,99.90
2019-01-08T09:06:05.649Z,99.90
2019-01-08T09:08:33.706Z,99.90
2019-01-08T09:11:01.765Z,99.90
2019-01-08T09:13:29.804Z,99.90
2019-01-08T09:15:57.842Z,99.90
2019-01-08T09:18:45.001Z,99.90
2019-01-08T09:21:13.046Z,99.90
2019-01-08T09:23:41.333Z,99.90
2019-01-08T09:26:09.373Z,99.90
2019-01-08T09:28:37.493Z,99.90
2019-01-08T09:31:05.610Z,99.90
2019-01-08T09:33:33.699Z,99.90
2019-01-08T09:36:01.742Z,99.90
2019-01-08T09:38:29.768Z,99.90
2019-01-08T09:40:57.826Z,99.90
2019-01-08T09:43:25.858Z,99.90
2019-01-08T09:45:53.926Z,99.90
2019-01-08T09:48:21.974Z,99.90
2019-01-08T09:50:50.030Z,99.90
2019-01-08T09:53:18.324Z,99.90
2019-01-08T09:55:46.438Z,99.90
2019-01-08T09:58:14.831Z,99.90
2019-01-08T10:00:42.870Z,99.90
2019-01-08T10:03:10.924Z,99.90
2019-01-08T10:05:40.392Z,99.90
2019-01-08T10:08:08.546Z,99.90
2019-01-08T10:10:36.658Z,99.90
2019-01-08T10:13:04.758Z,99.90
2019-01-08T10:15:32.911Z,99.90
2019-01-08T10:18:01.082Z,99.90
2019-01-08T10:20:29.170Z,99.90
2019-01-08T10:22:57.211Z,99.90
2019-01-08T10:25:25.302Z,99.90
2019-01-08T10:27:53.354Z,99.90
2019-01-08T10:30:21.511Z,99.90
2019-01-08T10:32:49.541Z,99.90
2019-01-08T10:35:17.681Z,99.90
2019-01-08T10:37:45.822Z,99.90
2019-01-08T10:40:13.870Z,99.90
2019-01-08T10:42:41.963Z,99.90
2019-01-08T10:45:10.003Z,99.90
2019-01-08T10:47:38.085Z,99.90
2019-01-08T10:50:06.355Z,99.90
2019-01-08T10:52:34.753Z,99.90
2019-01-08T10:55:02.796Z,99.90
2019-01-08T10:57:30.945Z,99.90
2019-01-08T10:59:59.284Z,99.90
2019-01-08T11:02:27.383Z,99.90
2019-01-08T11:04:55.451Z,99.90
2019-01-08T11:07:23.513Z,99.90
2019-01-08T11:09:51.920Z,99.90
2019-01-08T11:12:20.041Z,99.90
2019-01-08T11:14:48.181Z,99.90
2019-01-08T11:17:16.214Z,99.90
2019-01-08T11:19:44.345Z,99.90
2019-01-08T11:22:12.425Z,99.90
2019-01-08T11:24:40.470Z,99.90
2019-01-08T11:27:08.874Z,99.90
2019-01-08T11:29:36.914Z,99.90
2019-01-08T11:32:04.985Z,99.90
2019-01-08T11:34:34.894Z,99.90
2019-01-08T11:37:02.943Z,99.90
2019-01-08T11:39:31.023Z,99.90
2019-01-08T11:41:59.071Z,99.90
2019-01-08T11:44:27.365Z,99.90
2019-01-08T11:46:55.460Z,99.90
2019-01-08T11:49:23.509Z,99.90
2019-01-08T11:51:51.658Z,99.90
2019-01-08T11:54:19.780Z,99.90
2019-01-08T11:56:47.860Z,99.90
2019-01-08T11:59:15.929Z,99.90
2019-01-08T12:01:44.065Z,99.90
2019-01-08T12:04:12.105Z,99.90
2019-01-08T12:06:40.197Z,99.90
2019-01-08T12:09:08.315Z,99.90
2019-01-08T12:11:36.347Z,99.90
2019-01-08T12:14:04.390Z,99.90
2019-01-08T12:16:32.454Z,99.90
2019-01-08T12:19:00.490Z,99.90
2019-01-08T12:21:28.627Z,99.90
2019-01-08T12:23:56.665Z,99.90
2019-01-08T12:26:24.774Z,99.90
2019-01-08T12:28:52.833Z,99.90
2019-01-08T12:31:20.893Z,99.90
2019-01-08T12:33:48.949Z,99.90
2019-01-08T12:36:16.989Z,99.90
2019-01-08T12:38:45.055Z,99.90
2019-01-08T12:41:13.201Z,99.90
2019-01-08T12:43:41.245Z,99.90
2019-01-08T12:46:09.474Z,99.90
2019-01-08T12:48:37.553Z,99.90
2019-01-08T12:51:05.581Z,99.90
2019-01-08T12:53:33.666Z,99.90
2019-01-08T12:56:01.702Z,99.90
2019-01-08T12:58:29.813Z,99.90
2019-01-08T13:00:58.184Z,99.90
2019-01-08T13:03:26.335Z,99.90
2019-01-08T13:05:54.396Z,99.90
2019-01-08T13:08:22.439Z,99.90
2019-01-08T13:10:50.500Z,99.90
2019-01-08T13:13:18.559Z,99.90
2019-01-08T13:15:46.638Z,99.90
2019-01-08T13:18:14.712Z,99.90
2019-01-08T13:20:42.803Z,99.90
2019-01-08T13:23:11.215Z,99.90
2019-01-08T13:25:39.355Z,99.90
2019-01-08T13:28:07.434Z,99.90
2019-01-08T13:30:35.504Z,99.90
2019-01-08T13:33:03.650Z,99.90
2019-01-08T13:35:31.711Z,99.90
2019-01-08T13:37:59.776Z,99.90
2019-01-08T13:40:28.077Z,99.90
2019-01-08T13:42:56.142Z,99.90
2019-01-08T13:45:24.182Z,99.90
2019-01-08T13:47:52.446Z,99.90
2019-01-08T13:50:20.498Z,99.90
2019-01-08T13:52:48.550Z,99.90
2019-01-08T13:55:16.610Z,99.90
2019-01-08T13:57:44.666Z,99.90
2019-01-08T14:00:12.851Z,99.90
2019-01-08T14:02:40.890Z,99.90
2019-01-08T14:05:09.033Z,99.90
2019-01-08T14:07:37.114Z,99.90
2019-01-08T14:10:05.746Z,99.90
2019-01-08T14:12:33.801Z,99.90
2019-01-08T14:15:01.856Z,99.90
2019-01-08T14:17:29.938Z,99.90
2019-01-08T14:19:58.071Z,99.90
2019-01-08T14:22:27.988Z,99.90
2019-01-08T14:24:56.054Z,99.90
2019-01-08T14:27:24.489Z,99.90
2019-01-08T14:29:52.537Z,99.90
2019-01-08T14:32:20.588Z,99.90
2019-01-08T14:34:48.657Z,99.90
2019-01-08T14:37:16.710Z,99.90
2019-01-08T14:39:44.755Z,99.90
2019-01-08T14:42:12.827Z,99.90
2019-01-08T14:44:40.866Z,99.90
2019-01-08T14:47:08.948Z,99.90
2019-01-08T14:49:37.018Z,99.90
2019-01-08T14:52:05.130Z,99.90
2019-01-08T14:54:33.277Z,99.90
2019-01-08T14:57:01.313Z,99.90
2019-01-08T14:59:29.359Z,99.90
2019-01-08T15:01:57.427Z,99.90
2019-01-08T15:04:25.458Z,99.90
2019-01-08T15:06:53.514Z,99.90
2019-01-08T15:09:21.557Z,99.90
2019-01-08T15:11:49.626Z,99.90
2019-01-08T15:14:17.769Z,99.90
2019-01-08T15:16:46.177Z,99.90
2019-01-08T15:19:14.274Z,99.90
2019-01-08T15:21:42.370Z,99.90
2019-01-08T15:24:10.478Z,99.90
2019-01-08T15:26:38.818Z,99.90
2019-01-08T15:29:06.850Z,99.90
2019-01-08T15:31:34.897Z,99.90
2019-01-08T15:34:02.974Z,99.90
2019-01-08T15:36:31.039Z,99.90
2019-01-08T15:39:00.598Z,99.90
2019-01-08T15:41:28.638Z,99.90
2019-01-08T15:43:56.690Z,99.90
2019-01-08T15:46:24.986Z,99.90
2019-01-08T15:48:53.018Z,99.90
2019-01-08T15:51:21.061Z,99.90
2019-01-08T15:53:52.473Z,99.90
2019-01-08T15:56:20.522Z,99.90
2019-01-08T15:58:48.597Z,99.90
2019-01-08T16:01:16.886Z,99.90
2019-01-08T16:03:44.945Z,99.90
2019-01-08T16:06:12.997Z,99.90
2019-01-08T16:08:41.054Z,99.90
2019-01-08T16:11:09.210Z,99.90
2019-01-08T16:13:37.304Z,99.90
2019-01-08T16:16:05.362Z,99.90
2019-01-08T16:18:33.445Z,99.90
2019-01-08T16:21:01.483Z,99.90
2019-01-08T16:23:29.673Z,99.90
2019-01-08T16:25:57.893Z,99.90
2019-01-08T16:28:25.933Z,99.90
2019-01-08T16:30:53.990Z,99.90
2019-01-08T16:33:22.061Z,99.90
2019-01-08T16:35:50.123Z,99.90
2019-01-08T16:38:18.612Z,99.90
2019-01-08T16:40:46.665Z,99.90
2019-01-08T16:43:14.777Z,99.90
2019-01-08T16:45:42.859Z,99.90
2019-01-08T16:48:10.910Z,99.90
2019-01-08T16:50:38.942Z,99.90
2019-01-08T16:53:07.006Z,99.90
2019-01-08T16:55:35.409Z,99.70
2019-01-08T16:58:03.466Z,99.60
2019-01-08T17:00:31.509Z,99.60
2019-01-08T17:02:59.585Z,99.10
2019-01-08T17:05:27.682Z,99.40
2019-01-08T17:07:55.731Z,99.00
2019-01-08T17:10:23.799Z,98.90
2019-01-08T17:12:51.851Z,98.30
2019-01-08T17:15:19.909Z,98.50
2019-01-08T17:17:47.953Z,98.50
2019-01-08T17:20:16.091Z,98.20
2019-01-08T17:22:44.150Z,97.90
2019-01-08T17:25:13.382Z,97.90
2019-01-08T17:27:41.416Z,97.80
2019-01-08T17:30:10.213Z,97.70
2019-01-08T17:32:38.278Z,97.70
2019-01-08T17:35:06.693Z,97.80
2019-01-08T17:37:34.744Z,97.90
2019-01-08T17:40:02.818Z,97.80
2019-01-08T17:42:30.876Z,97.90
2019-01-08T17:44:58.925Z,97.70
2019-01-08T17:47:26.974Z,97.40
2019-01-08T17:49:55.025Z,97.30
2019-01-08T17:52:23.058Z,97.50
2019-01-08T17:54:51.574Z,97.40
2019-01-08T17:57:19.605Z,97.40
2019-01-08T17:59:47.731Z,97.40
2019-01-08T18:02:16.982Z,97.30
2019-01-08T18:04:45.098Z,97.30
2019-01-08T18:07:13.174Z,97.20
2019-01-08T18:09:41.213Z,96.60
2019-01-08T18:12:09.335Z,97.00
2019-01-08T18:14:37.365Z,96.90
2019-01-08T18:17:05.426Z,96.90
2019-01-08T18:19:33.482Z,96.70
2019-01-08T18:22:01.842Z,96.50
2019-01-08T18:24:29.902Z,97.00
2019-01-08T18:26:57.975Z,97.30
2019-01-08T18:29:26.041Z,97.30
2019-01-08T18:31:54.366Z,97.70
2019-01-08T18:34:22.853Z,97.90
2019-01-08T18:36:53.730Z,98.10
2019-01-08T18:39:21.877Z,98.70
2019-01-08T18:41:50.245Z,98.70
2019-01-08T18:44:18.297Z,99.10
2019-01-08T18:46:46.329Z,99.30
2019-01-08T18:49:14.387Z,99.60
2019-01-08T18:51:42.428Z,99.60
2019-01-08T18:54:10.697Z,99.80
2019-01-08T18:56:38.862Z,99.60
2019-01-08T18:59:06.945Z,99.20
2019-01-08T19:01:34.998Z,99.20
2019-01-08T19:04:03.415Z,99.50
2019-01-08T19:06:31.466Z,99.80
2019-01-08T19:09:17.575Z,99.90
2019-01-08T19:11:45.622Z,99.90
2019-01-08T19:14:14.396Z,99.90
2019-01-08T19:16:43.088Z,99.90
2019-01-08T19:19:11.269Z,99.90
2019-01-08T19:21:39.320Z,99.80
2019-01-08T19:24:07.465Z,99.20
2019-01-08T19:26:35.678Z,99.50
2019-01-08T19:29:03.714Z,99.70
2019-01-08T19:31:31.867Z,99.70
2019-01-08T19:34:08.728Z,99.80
2019-01-08T19:36:29.694Z,99.90
2019-01-08T19:38:57.743Z,99.90
2019-01-08T19:41:25.784Z,99.90
2019-01-08T19:43:55.639Z,99.90
2019-01-08T19:46:23.675Z,99.90
2019-01-08T19:48:51.741Z,99.90
2019-01-08T19:51:19.799Z,99.80
2019-01-08T19:53:47.845Z,99.80
2019-01-08T19:56:15.893Z,99.90
2019-01-08T19:58:43.959Z,99.90
2019-01-08T20:01:12.342Z,99.90
2019-01-08T20:03:40.380Z,99.90
2019-01-08T20:06:08.506Z,99.90
2019-01-08T20:08:36.562Z,99.90
2019-01-08T20:11:04.604Z,99.90
2019-01-08T20:13:32.637Z,99.90
2019-01-08T20:16:01.045Z,99.90
2019-01-08T20:18:29.120Z,99.90
2019-01-08T20:20:57.268Z,99.90
2019-01-08T20:23:25.325Z,99.90
2019-01-08T20:25:53.400Z,99.90
2019-01-08T20:28:21.442Z,99.90
2019-01-08T20:30:50.266Z,99.90
2019-01-08T20:33:18.390Z,99.70
2019-01-08T20:35:46.437Z,99.40
2019-01-08T20:38:14.518Z,99.90
2019-01-08T20:40:42.558Z,99.80
2019-01-08T20:43:10.609Z,99.90
2019-01-08T20:45:38.641Z,99.90
2019-01-08T20:48:06.755Z,99.90
2019-01-08T20:50:34.817Z,99.90
2019-01-08T20:53:02.873Z,99.90
2019-01-08T20:55:30.906Z,99.90
2019-01-08T20:57:58.961Z,99.90
2019-01-08T21:00:27.006Z,99.90
2019-01-08T21:02:55.061Z,99.90
2019-01-08T21:05:24.000Z,99.90
2019-01-08T21:07:52.325Z,99.90
2019-01-08T21:10:20.451Z,99.90
2019-01-08T21:12:48.506Z,99.90
2019-01-08T21:15:16.910Z,99.90
2019-01-08T21:17:44.969Z,99.90
2019-01-08T21:20:13.098Z,99.90
2019-01-08T21:22:41.145Z,99.90
2019-01-08T21:25:09.212Z,99.90
2019-01-08T21:27:37.285Z,99.90
2019-01-08T21:30:05.751Z,99.90
2019-01-08T21:32:33.917Z,99.90
2019-01-08T21:35:01.969Z,99.90
2019-01-08T21:37:31.105Z,99.90
2019-01-08T21:39:59.153Z,99.90
2019-01-08T21:42:27.209Z,99.90
2019-01-08T21:44:55.550Z,99.90
2019-01-08T21:47:23.582Z,99.90
2019-01-08T21:49:51.620Z,99.90
2019-01-08T21:52:20.166Z,99.90
2019-01-08T21:54:48.199Z,99.90
2019-01-08T21:57:16.270Z,99.90
2019-01-08T21:59:45.598Z,99.90
2019-01-08T22:02:13.674Z,99.90
2019-01-08T22:04:41.723Z,99.90
2019-01-08T22:07:09.783Z,99.90
2019-01-08T22:09:37.903Z,99.90
2019-01-08T22:12:06.002Z,99.90
2019-01-08T22:14:34.029Z,99.90
2019-01-08T22:17:02.096Z,99.90
2019-01-08T22:19:30.190Z,99.90
2019-01-08T22:21:58.314Z,99.90
2019-01-08T22:24:26.384Z,99.90
2019-01-08T22:26:54.486Z,99.90
2019-01-08T22:29:22.621Z,99.90
2019-01-08T22:31:50.716Z,99.90
2019-01-08T22:34:18.819Z,99.90
2019-01-08T22:36:46.870Z,99.90
2019-01-08T22:39:14.938Z,99.90
2019-01-08T22:41:43.110Z,99.90
2019-01-08T22:44:11.147Z,99.90
2019-01-08T22:46:39.447Z,99.90
2019-01-08T22:49:07.683Z,99.90
2019-01-08T22:51:36.197Z,99.90
2019-01-08T22:54:04.456Z,99.90
2019-01-08T22:56:32.649Z,99.90
2019-01-08T22:59:00.778Z,99.90
2019-01-08T23:01:48.006Z,99.90
2019-01-08T23:04:16.230Z,99.90
2019-01-08T23:06:44.334Z,99.90
2019-01-08T23:09:12.383Z,99.90
2019-01-08T23:11:40.426Z,99.90
2019-01-08T23:14:08.527Z,99.90
2019-01-08T23:16:36.566Z,99.90
2019-01-08T23:19:04.655Z,99.90
2019-01-08T23:21:32.699Z,99.90
2019-01-08T23:24:00.743Z,99.90
2019-01-08T23:26:28.823Z,99.90
2019-01-08T23:28:56.865Z,99.90
2019-01-08T23:31:24.922Z,99.90
2019-01-08T23:33:53.125Z,99.90
2019-01-08T23:36:21.154Z,99.90
2019-01-08T23:38:49.190Z,99.90
2019-01-08T23:41:17.250Z,99.90
2019-01-08T23:43:45.285Z,99.90
2019-01-08T23:46:13.385Z,99.90
2019-01-08T23:48:41.441Z,99.90
2019-01-08T23:51:09.509Z,99.90
2019-01-08T23:53:39.099Z,99.90
2019-01-08T23:56:07.552Z,99.90
2019-01-08T23:58:35.633Z,99.90
